Terminal Aerodrome Forecast
Issued by NWS Detroit/Pontiac, MI

Home | Current Version | Previous Version | Text Only | Print | Product List | Glossary On
Versions: 1 2 3 4 5 6 7 8 9 10 11 12 13 14 15 16 17 18 19 20 21 22 23 24 25 26 27 28 29 30 31 32
000
FTUS43 KDTX 271720
TAFDTW
TAF
KDTW 271720Z 2718/2824 15008KT 6SM SHRA VCTS BKN040CB OVC060
      TEMPO 2718/2720 3SM -TSRA SCT022CB OVC040
     FM272100 14005KT P6SM SCT080 OVC120
     FM280900 VRB03KT 5SM BR SCT015
     FM281400 25006KT P6SM BKN025
     FM281700 27010KT P6SM BKN035
     FM282000 28009KT P6SM SCT040=

USA.gov is the U.S. government's official web portal to all federal, state and local government web resources and services.